ROMMA est une association bénévole à but non lucratif. Votre soutien est indispensable : ADHERER à ROMMA ou FAIRE un DON

Crempigny-Bonneguête - (74, Haute-Savoie)

Albanais-Montagne des Princes (500 m)   Longitude: 05° 54' 5" E   Latitude: 45° 57' 0" N Station partenaire n°10
 

Détail journalier du     <<     >>

Température Precipitation Humidité Pression Vent Dir Rafale Dir. rafale Ensol. 20 cm au dessus du sol
Heure (°C) (mm) (%) (hPa) (km/h) (km/h) (min) (°C)
01:00 9.6080101111NO26NNE08.9
02:00 9.2082101113NNO34NE08.9
03:00 9.1084101112NNE31NO08.3
04:00 9.2086101110NNO26NNE08.9
05:00 9.308610118N23NNE08.9
06:00 9.208510119N31N08.9
07:00 9.1084101111NNE29NNE08.9
08:00 8.9084101112N31NO08.9
09:00 9.1083101112N31NNO08.9
10:00 9.3081101112NNE32N09.4
11:00 9.6080101215NNE40NE09.4
12:00 9.7079101216NNE39N09.4
13:00 10.6077101218NNE42NNE010.6
14:00 11.8073101215NNE34NNO012.2
15:00 13.1070101216NNE37NNE1014.4
16:00 14.0063101218NNE40NNE4514.4
17:00 13.2063101220NNE48N3013.3
18:00 12.2067101221NNE44NNE012.2
19:00 10.9068101320NNE45NO010.6
20:00 10.1070101322NNE50NNE09.4
21:00 9.8070101420N52NNE09.4
22:00 9.4072101421N56NNE08.9
23:00 9.1075101421N58NNE08.3
minuit 8.7075101417N44NNE07.8

Graphique du 11-04-2019

 

Serveur OMMA